Hogeland, Montana
Current Conditions -  °F | °C
As of 6:53 PM on Friday 28 Nov 2014 (Local Time) from KHVR Reporting Station
Overcast Overcast  
Wind Chill: -14°   Ceiling: 1600
Heat Index:   Visibility: 10mi
Dew Point: -2°   Wind: 15mph
Humidity: 76%   Direction: 320°NW
Pressure: 29.64"   Gusts: 23mph
Location:  48.85°N, 108.66°W
Report Text: KHVR 290153Z AUTO 32013G20KT 10SM OVC016 M16/M19 A2964 RMK AO2 UPB03E29SNB10E20 SLP080 P0000 T11561189
Loading
Personal Weather Stations






























Interactive Weather Map New forecast layout! Learn more

10-Day Weather Forecast

Advertisements
Track Severe Weather on mobile